sensor_id;sensor_type;location;lat;lon;timestamp;P1;durP1;ratioP1;P2;durP2;ratioP2
44426;SDS011;30133;47.866;-4.222;2022-11-20T00:00:12;2.53;;;0.90;;
44426;SDS011;30133;47.866;-4.222;2022-11-20T00:02:40;0.30;;;0.30;;
44426;SDS011;30133;47.866;-4.222;2022-11-20T00:05:06;2.58;;;0.75;;
44426;SDS011;30133;47.866;-4.222;2022-11-20T00:07:33;2.53;;;0.88;;
44426;SDS011;30133;47.866;-4.222;2022-11-20T00:09:59;2.50;;;0.80;;
44426;SDS011;30133;47.866;-4.222;2022-11-20T00:12:27;0.95;;;0.60;;
44426;SDS011;30133;47.866;-4.222;2022-11-20T00:14:53;2.67;;;1.25;;
44426;SDS011;30133;47.866;-4.222;2022-11-20T00:17:19;2.05;;;0.88;;
44426;SDS011;30133;47.866;-4.222;2022-11-20T00:19:45;1.33;;;0.70;;
44426;SDS011;30133;47.866;-4.222;2022-11-20T00:22:11;1.02;;;0.50;;
44426;SDS011;30133;47.866;-4.222;2022-11-20T00:24:37;1.30;;;0.63;;
44426;SDS011;30133;47.866;-4.222;2022-11-20T00:27:02;1.50;;;0.80;;
44426;SDS011;30133;47.866;-4.222;2022-11-20T00:29:28;2.35;;;1.38;;
44426;SDS011;30133;47.866;-4.222;2022-11-20T00:31:54;0.98;;;0.70;;
44426;SDS011;30133;47.866;-4.222;2022-11-20T00:34:20;0.82;;;0.50;;
44426;SDS011;30133;47.866;-4.222;2022-11-20T00:36:46;1.20;;;0.40;;
44426;SDS011;30133;47.866;-4.222;2022-11-20T00:39:12;1.73;;;0.98;;
44426;SDS011;30133;47.866;-4.222;2022-11-20T00:41:38;1.00;;;0.57;;
44426;SDS011;30133;47.866;-4.222;2022-11-20T00:44:04;1.25;;;0.50;;
44426;SDS011;30133;47.866;-4.222;2022-11-20T00:46:29;0.73;;;0.45;;
44426;SDS011;30133;47.866;-4.222;2022-11-20T00:48:56;1.20;;;0.57;;
44426;SDS011;30133;47.866;-4.222;2022-11-20T00:51:22;1.33;;;0.60;;
44426;SDS011;30133;47.866;-4.222;2022-11-20T00:53:51;0.82;;;0.52;;
44426;SDS011;30133;47.866;-4.222;2022-11-20T00:56:21;1.20;;;0.60;;
44426;SDS011;30133;47.866;-4.222;2022-11-20T00:58:47;4.10;;;1.10;;
44426;SDS011;30133;47.866;-4.222;2022-11-20T01:03:50;0.57;;;0.40;;
44426;SDS011;30133;47.866;-4.222;2022-11-20T01:06:19;0.60;;;0.38;;
44426;SDS011;30133;47.866;-4.222;2022-11-20T01:08:48;1.23;;;0.40;;
44426;SDS011;30133;47.866;-4.222;2022-11-20T01:11:25;2.55;;;0.75;;
44426;SDS011;30133;47.866;-4.222;2022-11-20T01:13:57;0.90;;;0.43;;
44426;SDS011;30133;47.866;-4.222;2022-11-20T01:19:00;0.57;;;0.43;;
44426;SDS011;30133;47.866;-4.222;2022-11-20T01:21:29;0.63;;;0.38;;
44426;SDS011;30133;47.866;-4.222;2022-11-20T01:23:58;1.23;;;0.60;;
44426;SDS011;30133;47.866;-4.222;2022-11-20T01:26:27;2.22;;;0.40;;
44426;SDS011;30133;47.866;-4.222;2022-11-20T01:29:00;0.82;;;0.60;;
44426;SDS011;30133;47.866;-4.222;2022-11-20T01:31:28;1.58;;;0.63;;
44426;SDS011;30133;47.866;-4.222;2022-11-20T01:33:58;0.60;;;0.40;;
44426;SDS011;30133;47.866;-4.222;2022-11-20T01:36:27;3.17;;;1.27;;
44426;SDS011;30133;47.866;-4.222;2022-11-20T01:38:57;0.65;;;0.38;;
44426;SDS011;30133;47.866;-4.222;2022-11-20T01:41:26;3.05;;;0.57;;
44426;SDS011;30133;47.866;-4.222;2022-11-20T01:44:14;1.63;;;0.57;;
44426;SDS011;30133;47.866;-4.222;2022-11-20T01:46:56;2.88;;;0.50;;
44426;SDS011;30133;47.866;-4.222;2022-11-20T01:49:29;0.63;;;0.50;;
44426;SDS011;30133;47.866;-4.222;2022-11-20T01:54:42;0.80;;;0.40;;
44426;SDS011;30133;47.866;-4.222;2022-11-20T01:57:35;0.85;;;0.40;;
44426;SDS011;30133;47.866;-4.222;2022-11-20T02:00:07;0.50;;;0.30;;
44426;SDS011;30133;47.866;-4.222;2022-11-20T02:02:42;0.20;;;0.20;;
44426;SDS011;30133;47.866;-4.222;2022-11-20T02:05:32;0.65;;;0.32;;
44426;SDS011;30133;47.866;-4.222;2022-11-20T02:08:42;1.00;;;0.60;;
44426;SDS011;30133;47.866;-4.222;2022-11-20T02:11:08;1.33;;;0.70;;
44426;SDS011;30133;47.866;-4.222;2022-11-20T02:13:34;0.55;;;0.47;;
44426;SDS011;30133;47.866;-4.222;2022-11-20T02:16:17;0.47;;;0.47;;
44426;SDS011;30133;47.866;-4.222;2022-11-20T02:18:44;0.63;;;0.40;;
44426;SDS011;30133;47.866;-4.222;2022-11-20T02:21:28;0.55;;;0.35;;
44426;SDS011;30133;47.866;-4.222;2022-11-20T02:24:29;1.13;;;0.82;;
44426;SDS011;30133;47.866;-4.222;2022-11-20T02:27:06;1.58;;;0.30;;
44426;SDS011;30133;47.866;-4.222;2022-11-20T02:32:28;1.10;;;0.40;;
44426;SDS011;30133;47.866;-4.222;2022-11-20T02:34:57;1.30;;;0.60;;
44426;SDS011;30133;47.866;-4.222;2022-11-20T02:37:25;3.67;;;0.60;;
44426;SDS011;30133;47.866;-4.222;2022-11-20T02:39:57;2.58;;;0.93;;
44426;SDS011;30133;47.866;-4.222;2022-11-20T02:42:23;2.63;;;0.63;;
44426;SDS011;30133;47.866;-4.222;2022-11-20T02:44:49;3.03;;;0.68;;
44426;SDS011;30133;47.866;-4.222;2022-11-20T02:47:17;0.90;;;0.50;;
44426;SDS011;30133;47.866;-4.222;2022-11-20T02:49:43;1.45;;;0.47;;
44426;SDS011;30133;47.866;-4.222;2022-11-20T02:52:08;1.17;;;0.63;;
44426;SDS011;30133;47.866;-4.222;2022-11-20T02:54:34;2.65;;;0.50;;
44426;SDS011;30133;47.866;-4.222;2022-11-20T02:57:00;3.20;;;1.15;;
44426;SDS011;30133;47.866;-4.222;2022-11-20T02:59:26;1.17;;;0.50;;
44426;SDS011;30133;47.866;-4.222;2022-11-20T03:01:52;2.05;;;0.60;;
44426;SDS011;30133;47.866;-4.222;2022-11-20T03:04:18;1.60;;;0.65;;
44426;SDS011;30133;47.866;-4.222;2022-11-20T03:06:44;0.95;;;0.63;;
44426;SDS011;30133;47.866;-4.222;2022-11-20T03:09:10;1.02;;;0.55;;
44426;SDS011;30133;47.866;-4.222;2022-11-20T03:11:36;2.80;;;0.65;;
44426;SDS011;30133;47.866;-4.222;2022-11-20T03:14:03;2.50;;;0.73;;
44426;SDS011;30133;47.866;-4.222;2022-11-20T03:16:30;1.20;;;0.57;;
44426;SDS011;30133;47.866;-4.222;2022-11-20T03:18:57;1.73;;;0.60;;
44426;SDS011;30133;47.866;-4.222;2022-11-20T03:21:23;0.60;;;0.47;;
44426;SDS011;30133;47.866;-4.222;2022-11-20T03:23:50;0.50;;;0.50;;
44426;SDS011;30133;47.866;-4.222;2022-11-20T03:26:20;2.58;;;0.90;;
44426;SDS011;30133;47.866;-4.222;2022-11-20T03:28:51;2.67;;;0.73;;
44426;SDS011;30133;47.866;-4.222;2022-11-20T03:31:21;2.30;;;0.63;;
44426;SDS011;30133;47.866;-4.222;2022-11-20T03:33:53;1.67;;;0.60;;
44426;SDS011;30133;47.866;-4.222;2022-11-20T03:36:19;4.53;;;0.60;;
44426;SDS011;30133;47.866;-4.222;2022-11-20T03:38:47;1.98;;;0.77;;
44426;SDS011;30133;47.866;-4.222;2022-11-20T03:41:14;0.90;;;0.63;;
44426;SDS011;30133;47.866;-4.222;2022-11-20T03:43:47;6.43;;;0.75;;
44426;SDS011;30133;47.866;-4.222;2022-11-20T03:46:17;2.45;;;0.65;;
44426;SDS011;30133;47.866;-4.222;2022-11-20T03:48:43;2.55;;;0.50;;
44426;SDS011;30133;47.866;-4.222;2022-11-20T03:51:10;3.15;;;0.85;;
44426;SDS011;30133;47.866;-4.222;2022-11-20T03:53:39;3.00;;;0.82;;
44426;SDS011;30133;47.866;-4.222;2022-11-20T03:56:07;3.05;;;0.80;;
44426;SDS011;30133;47.866;-4.222;2022-11-20T03:58:34;3.67;;;1.02;;
44426;SDS011;30133;47.866;-4.222;2022-11-20T04:01:14;1.75;;;0.65;;
44426;SDS011;30133;47.866;-4.222;2022-11-20T04:03:47;2.78;;;0.93;;
44426;SDS011;30133;47.866;-4.222;2022-11-20T04:06:23;3.40;;;0.60;;
44426;SDS011;30133;47.866;-4.222;2022-11-20T04:08:56;1.88;;;0.85;;
44426;SDS011;30133;47.866;-4.222;2022-11-20T04:11:27;3.90;;;0.70;;
44426;SDS011;30133;47.866;-4.222;2022-11-20T04:13:58;3.15;;;0.90;;
44426;SDS011;30133;47.866;-4.222;2022-11-20T04:16:29;2.40;;;0.88;;
44426;SDS011;30133;47.866;-4.222;2022-11-20T04:18:58;0.85;;;0.52;;
44426;SDS011;30133;47.866;-4.222;2022-11-20T04:21:26;1.20;;;0.68;;
44426;SDS011;30133;47.866;-4.222;2022-11-20T04:23:53;2.88;;;0.70;;
44426;SDS011;30133;47.866;-4.222;2022-11-20T04:26:21;2.17;;;0.98;;
44426;SDS011;30133;47.866;-4.222;2022-11-20T04:28:49;4.07;;;0.98;;
44426;SDS011;30133;47.866;-4.222;2022-11-20T04:31:16;3.92;;;0.85;;
44426;SDS011;30133;47.866;-4.222;2022-11-20T04:33:45;1.35;;;0.52;;
44426;SDS011;30133;47.866;-4.222;2022-11-20T04:36:12;4.30;;;0.82;;
44426;SDS011;30133;47.866;-4.222;2022-11-20T04:38:46;2.15;;;0.90;;
44426;SDS011;30133;47.866;-4.222;2022-11-20T04:41:27;1.52;;;0.60;;
44426;SDS011;30133;47.866;-4.222;2022-11-20T04:43:56;3.10;;;0.90;;
44426;SDS011;30133;47.866;-4.222;2022-11-20T04:46:27;0.98;;;0.80;;
44426;SDS011;30133;47.866;-4.222;2022-11-20T04:48:55;2.70;;;0.60;;
44426;SDS011;30133;47.866;-4.222;2022-11-20T04:51:21;3.35;;;0.75;;
44426;SDS011;30133;47.866;-4.222;2022-11-20T04:53:47;3.80;;;0.98;;
44426;SDS011;30133;47.866;-4.222;2022-11-20T04:56:13;2.20;;;0.65;;
44426;SDS011;30133;47.866;-4.222;2022-11-20T04:58:40;2.58;;;0.80;;
44426;SDS011;30133;47.866;-4.222;2022-11-20T05:01:07;2.28;;;0.73;;
44426;SDS011;30133;47.866;-4.222;2022-11-20T05:03:40;5.32;;;1.02;;
44426;SDS011;30133;47.866;-4.222;2022-11-20T05:06:08;6.68;;;1.42;;
44426;SDS011;30133;47.866;-4.222;2022-11-20T05:08:36;2.42;;;0.73;;
44426;SDS011;30133;47.866;-4.222;2022-11-20T05:11:03;4.53;;;1.15;;
44426;SDS011;30133;47.866;-4.222;2022-11-20T05:13:36;2.75;;;0.50;;
44426;SDS011;30133;47.866;-4.222;2022-11-20T05:16:03;3.90;;;1.15;;
44426;SDS011;30133;47.866;-4.222;2022-11-20T05:18:37;3.20;;;1.00;;
44426;SDS011;30133;47.866;-4.222;2022-11-20T05:21:04;3.00;;;0.98;;
44426;SDS011;30133;47.866;-4.222;2022-11-20T05:23:32;4.53;;;0.85;;
44426;SDS011;30133;47.866;-4.222;2022-11-20T05:25:59;3.55;;;1.10;;
44426;SDS011;30133;47.866;-4.222;2022-11-20T05:28:26;2.92;;;1.38;;
44426;SDS011;30133;47.866;-4.222;2022-11-20T05:30:54;4.55;;;1.00;;
44426;SDS011;30133;47.866;-4.222;2022-11-20T05:33:20;6.75;;;1.05;;
44426;SDS011;30133;47.866;-4.222;2022-11-20T05:35:47;4.82;;;0.98;;
44426;SDS011;30133;47.866;-4.222;2022-11-20T05:38:14;3.40;;;1.52;;
44426;SDS011;30133;47.866;-4.222;2022-11-20T05:40:40;2.83;;;1.20;;
44426;SDS011;30133;47.866;-4.222;2022-11-20T05:43:06;3.45;;;1.17;;
44426;SDS011;30133;47.866;-4.222;2022-11-20T05:45:32;2.28;;;1.13;;
44426;SDS011;30133;47.866;-4.222;2022-11-20T05:47:59;3.90;;;1.38;;
44426;SDS011;30133;47.866;-4.222;2022-11-20T05:50:26;3.65;;;1.13;;
44426;SDS011;30133;47.866;-4.222;2022-11-20T05:52:53;0.85;;;0.80;;
44426;SDS011;30133;47.866;-4.222;2022-11-20T05:55:19;2.72;;;0.98;;
44426;SDS011;30133;47.866;-4.222;2022-11-20T05:57:44;2.17;;;0.63;;
44426;SDS011;30133;47.866;-4.222;2022-11-20T06:00:11;5.00;;;1.55;;
44426;SDS011;30133;47.866;-4.222;2022-11-20T06:02:38;4.85;;;1.20;;
44426;SDS011;30133;47.866;-4.222;2022-11-20T06:05:04;1.63;;;0.75;;
44426;SDS011;30133;47.866;-4.222;2022-11-20T06:07:30;2.53;;;1.00;;
44426;SDS011;30133;47.866;-4.222;2022-11-20T06:09:56;3.42;;;1.30;;
44426;SDS011;30133;47.866;-4.222;2022-11-20T06:12:22;3.03;;;1.20;;
44426;SDS011;30133;47.866;-4.222;2022-11-20T06:14:48;3.10;;;1.05;;
44426;SDS011;30133;47.866;-4.222;2022-11-20T06:17:14;4.63;;;1.38;;
44426;SDS011;30133;47.866;-4.222;2022-11-20T06:19:39;6.07;;;1.17;;
44426;SDS011;30133;47.866;-4.222;2022-11-20T06:22:05;4.70;;;1.30;;
44426;SDS011;30133;47.866;-4.222;2022-11-20T06:24:31;4.10;;;1.17;;
44426;SDS011;30133;47.866;-4.222;2022-11-20T06:26:58;3.35;;;1.08;;
44426;SDS011;30133;47.866;-4.222;2022-11-20T06:29:24;3.65;;;1.05;;
44426;SDS011;30133;47.866;-4.222;2022-11-20T06:31:50;3.90;;;1.15;;
44426;SDS011;30133;47.866;-4.222;2022-11-20T06:34:17;1.50;;;0.90;;
44426;SDS011;30133;47.866;-4.222;2022-11-20T06:36:43;4.65;;;1.60;;
44426;SDS011;30133;47.866;-4.222;2022-11-20T06:39:09;3.95;;;1.20;;
44426;SDS011;30133;47.866;-4.222;2022-11-20T06:41:36;2.75;;;1.08;;
44426;SDS011;30133;47.866;-4.222;2022-11-20T06:44:03;3.15;;;1.00;;
44426;SDS011;30133;47.866;-4.222;2022-11-20T06:46:31;4.32;;;1.70;;
44426;SDS011;30133;47.866;-4.222;2022-11-20T06:48:57;6.15;;;1.15;;
44426;SDS011;30133;47.866;-4.222;2022-11-20T06:51:23;2.92;;;1.10;;
44426;SDS011;30133;47.866;-4.222;2022-11-20T06:53:49;3.72;;;1.13;;
44426;SDS011;30133;47.866;-4.222;2022-11-20T06:56:15;6.43;;;1.48;;
44426;SDS011;30133;47.866;-4.222;2022-11-20T06:58:41;3.53;;;1.10;;
44426;SDS011;30133;47.866;-4.222;2022-11-20T07:01:08;3.63;;;1.00;;
44426;SDS011;30133;47.866;-4.222;2022-11-20T07:03:37;5.05;;;1.35;;
44426;SDS011;30133;47.866;-4.222;2022-11-20T07:06:04;3.45;;;1.63;;
44426;SDS011;30133;47.866;-4.222;2022-11-20T07:08:31;6.00;;;1.08;;
44426;SDS011;30133;47.866;-4.222;2022-11-20T07:10:58;5.10;;;2.25;;
44426;SDS011;30133;47.866;-4.222;2022-11-20T07:13:27;3.10;;;1.00;;
44426;SDS011;30133;47.866;-4.222;2022-11-20T07:15:53;4.95;;;1.02;;
44426;SDS011;30133;47.866;-4.222;2022-11-20T07:18:19;4.95;;;1.40;;
44426;SDS011;30133;47.866;-4.222;2022-11-20T07:20:45;4.22;;;1.20;;
44426;SDS011;30133;47.866;-4.222;2022-11-20T07:23:12;3.35;;;0.90;;
44426;SDS011;30133;47.866;-4.222;2022-11-20T07:25:38;4.65;;;1.27;;
44426;SDS011;30133;47.866;-4.222;2022-11-20T07:28:03;3.85;;;1.42;;
44426;SDS011;30133;47.866;-4.222;2022-11-20T07:30:30;5.70;;;1.38;;
44426;SDS011;30133;47.866;-4.222;2022-11-20T07:32:56;3.50;;;1.25;;
44426;SDS011;30133;47.866;-4.222;2022-11-20T07:35:23;3.38;;;1.27;;
44426;SDS011;30133;47.866;-4.222;2022-11-20T07:37:50;3.75;;;1.50;;
44426;SDS011;30133;47.866;-4.222;2022-11-20T07:40:16;4.60;;;1.40;;
44426;SDS011;30133;47.866;-4.222;2022-11-20T07:45:16;4.97;;;1.45;;
44426;SDS011;30133;47.866;-4.222;2022-11-20T07:47:43;5.45;;;1.48;;
44426;SDS011;30133;47.866;-4.222;2022-11-20T07:50:09;4.95;;;1.55;;
44426;SDS011;30133;47.866;-4.222;2022-11-20T07:52:37;5.47;;;0.85;;
44426;SDS011;30133;47.866;-4.222;2022-11-20T07:55:03;6.15;;;1.35;;
44426;SDS011;30133;47.866;-4.222;2022-11-20T07:57:30;5.25;;;1.35;;
44426;SDS011;30133;47.866;-4.222;2022-11-20T07:59:56;6.65;;;2.00;;
44426;SDS011;30133;47.866;-4.222;2022-11-20T08:02:22;7.85;;;1.80;;
44426;SDS011;30133;47.866;-4.222;2022-11-20T08:04:48;4.32;;;1.27;;
44426;SDS011;30133;47.866;-4.222;2022-11-20T08:07:14;5.47;;;1.42;;
44426;SDS011;30133;47.866;-4.222;2022-11-20T08:09:40;8.30;;;1.63;;
44426;SDS011;30133;47.866;-4.222;2022-11-20T08:12:06;3.83;;;1.40;;
44426;SDS011;30133;47.866;-4.222;2022-11-20T08:14:51;5.60;;;1.95;;
44426;SDS011;30133;47.866;-4.222;2022-11-20T08:17:17;3.13;;;1.30;;
44426;SDS011;30133;47.866;-4.222;2022-11-20T08:19:43;7.97;;;1.60;;
44426;SDS011;30133;47.866;-4.222;2022-11-20T08:22:09;6.63;;;1.80;;
44426;SDS011;30133;47.866;-4.222;2022-11-20T08:24:35;5.28;;;1.92;;
44426;SDS011;30133;47.866;-4.222;2022-11-20T08:27:00;3.40;;;1.48;;
44426;SDS011;30133;47.866;-4.222;2022-11-20T08:29:27;5.85;;;1.55;;
44426;SDS011;30133;47.866;-4.222;2022-11-20T08:31:53;7.13;;;2.58;;
44426;SDS011;30133;47.866;-4.222;2022-11-20T08:34:20;8.40;;;2.00;;
44426;SDS011;30133;47.866;-4.222;2022-11-20T08:36:46;10.95;;;1.80;;
44426;SDS011;30133;47.866;-4.222;2022-11-20T08:39:12;6.43;;;1.92;;
44426;SDS011;30133;47.866;-4.222;2022-11-20T08:41:39;7.60;;;1.65;;
44426;SDS011;30133;47.866;-4.222;2022-11-20T08:44:07;7.68;;;1.83;;
44426;SDS011;30133;47.866;-4.222;2022-11-20T08:46:37;6.63;;;1.75;;
44426;SDS011;30133;47.866;-4.222;2022-11-20T08:49:06;5.70;;;2.17;;
44426;SDS011;30133;47.866;-4.222;2022-11-20T08:51:35;4.78;;;1.23;;
44426;SDS011;30133;47.866;-4.222;2022-11-20T08:54:04;12.25;;;2.10;;
44426;SDS011;30133;47.866;-4.222;2022-11-20T08:56:30;6.20;;;2.40;;
44426;SDS011;30133;47.866;-4.222;2022-11-20T08:58:57;4.60;;;1.88;;
44426;SDS011;30133;47.866;-4.222;2022-11-20T09:01:24;8.75;;;2.05;;
44426;SDS011;30133;47.866;-4.222;2022-11-20T09:03:51;6.82;;;1.83;;
44426;SDS011;30133;47.866;-4.222;2022-11-20T09:06:17;5.07;;;1.70;;
44426;SDS011;30133;47.866;-4.222;2022-11-20T09:08:44;8.38;;;2.00;;
44426;SDS011;30133;47.866;-4.222;2022-11-20T09:11:10;8.77;;;1.75;;
44426;SDS011;30133;47.866;-4.222;2022-11-20T09:13:36;11.35;;;2.20;;
44426;SDS011;30133;47.866;-4.222;2022-11-20T09:16:03;9.40;;;2.80;;
44426;SDS011;30133;47.866;-4.222;2022-11-20T09:18:32;3.95;;;1.90;;
44426;SDS011;30133;47.866;-4.222;2022-11-20T09:21:02;7.15;;;1.85;;
44426;SDS011;30133;47.866;-4.222;2022-11-20T09:23:39;8.15;;;1.88;;
44426;SDS011;30133;47.866;-4.222;2022-11-20T09:26:06;5.72;;;1.30;;
44426;SDS011;30133;47.866;-4.222;2022-11-20T09:28:36;6.65;;;1.73;;
44426;SDS011;30133;47.866;-4.222;2022-11-20T09:31:08;5.20;;;1.67;;
44426;SDS011;30133;47.866;-4.222;2022-11-20T09:33:48;9.63;;;2.45;;
44426;SDS011;30133;47.866;-4.222;2022-11-20T09:36:14;5.03;;;1.95;;
44426;SDS011;30133;47.866;-4.222;2022-11-20T09:38:42;5.82;;;2.20;;
44426;SDS011;30133;47.866;-4.222;2022-11-20T09:41:31;8.30;;;1.60;;
44426;SDS011;30133;47.866;-4.222;2022-11-20T09:47:15;5.45;;;2.03;;
44426;SDS011;30133;47.866;-4.222;2022-11-20T09:56:20;3.92;;;1.73;;
44426;SDS011;30133;47.866;-4.222;2022-11-20T09:58:50;7.13;;;1.80;;
44426;SDS011;30133;47.866;-4.222;2022-11-20T10:01:18;6.25;;;1.67;;
44426;SDS011;30133;47.866;-4.222;2022-11-20T10:06:44;5.85;;;1.60;;
44426;SDS011;30133;47.866;-4.222;2022-11-20T10:09:37;9.48;;;1.70;;
44426;SDS011;30133;47.866;-4.222;2022-11-20T10:12:14;5.15;;;1.85;;
44426;SDS011;30133;47.866;-4.222;2022-11-20T10:21:28;7.18;;;1.85;;
44426;SDS011;30133;47.866;-4.222;2022-11-20T10:30:18;7.55;;;1.75;;
44426;SDS011;30133;47.866;-4.222;2022-11-20T10:32:52;5.22;;;1.92;;
44426;SDS011;30133;47.866;-4.222;2022-11-20T10:35:48;6.70;;;1.60;;
44426;SDS011;30133;47.866;-4.222;2022-11-20T10:38:43;5.05;;;1.35;;
44426;SDS011;30133;47.866;-4.222;2022-11-20T10:41:23;4.88;;;1.65;;
44426;SDS011;30133;47.866;-4.222;2022-11-20T10:44:09;6.20;;;1.70;;
44426;SDS011;30133;47.866;-4.222;2022-11-20T10:47:01;5.38;;;1.67;;
44426;SDS011;30133;47.866;-4.222;2022-11-20T10:49:30;5.97;;;2.13;;
44426;SDS011;30133;47.866;-4.222;2022-11-20T10:54:59;5.47;;;1.67;;
44426;SDS011;30133;47.866;-4.222;2022-11-20T11:01:02;5.53;;;1.88;;
44426;SDS011;30133;47.866;-4.222;2022-11-20T11:03:43;4.10;;;2.17;;
44426;SDS011;30133;47.866;-4.222;2022-11-20T11:06:17;3.40;;;1.42;;
44426;SDS011;30133;47.866;-4.222;2022-11-20T11:09:03;7.70;;;1.73;;
44426;SDS011;30133;47.866;-4.222;2022-11-20T11:11:54;5.95;;;2.13;;
44426;SDS011;30133;47.866;-4.222;2022-11-20T11:14:20;4.95;;;1.95;;
44426;SDS011;30133;47.866;-4.222;2022-11-20T11:16:53;5.57;;;1.73;;
44426;SDS011;30133;47.866;-4.222;2022-11-20T11:19:22;5.25;;;1.80;;
44426;SDS011;30133;47.866;-4.222;2022-11-20T11:21:55;6.32;;;1.77;;
44426;SDS011;30133;47.866;-4.222;2022-11-20T11:26:59;3.70;;;1.33;;
44426;SDS011;30133;47.866;-4.222;2022-11-20T11:29:32;4.95;;;2.58;;
44426;SDS011;30133;47.866;-4.222;2022-11-20T11:32:11;5.15;;;1.63;;
44426;SDS011;30133;47.866;-4.222;2022-11-20T11:34:40;4.75;;;1.63;;
44426;SDS011;30133;47.866;-4.222;2022-11-20T11:37:11;7.60;;;1.48;;
44426;SDS011;30133;47.866;-4.222;2022-11-20T11:39:43;6.90;;;2.13;;
44426;SDS011;30133;47.866;-4.222;2022-11-20T11:42:12;6.35;;;1.60;;
44426;SDS011;30133;47.866;-4.222;2022-11-20T11:44:46;3.33;;;1.38;;
44426;SDS011;30133;47.866;-4.222;2022-11-20T11:47:32;9.38;;;1.50;;
44426;SDS011;30133;47.866;-4.222;2022-11-20T11:50:21;9.82;;;2.45;;
44426;SDS011;30133;47.866;-4.222;2022-11-20T12:04:28;8.38;;;1.80;;
44426;SDS011;30133;47.866;-4.222;2022-11-20T12:07:55;8.82;;;2.55;;
44426;SDS011;30133;47.866;-4.222;2022-11-20T12:09:57;8.55;;;1.80;;
44426;SDS011;30133;47.866;-4.222;2022-11-20T12:12:36;9.13;;;1.70;;
44426;SDS011;30133;47.866;-4.222;2022-11-20T12:15:11;7.53;;;1.83;;
44426;SDS011;30133;47.866;-4.222;2022-11-20T12:17:46;5.28;;;2.05;;
44426;SDS011;30133;47.866;-4.222;2022-11-20T12:20:13;7.30;;;2.05;;
44426;SDS011;30133;47.866;-4.222;2022-11-20T12:22:52;7.68;;;1.90;;
44426;SDS011;30133;47.866;-4.222;2022-11-20T12:25:43;7.53;;;1.88;;
44426;SDS011;30133;47.866;-4.222;2022-11-20T12:31:23;4.60;;;1.52;;
44426;SDS011;30133;47.866;-4.222;2022-11-20T12:59:52;11.75;;;1.90;;
44426;SDS011;30133;47.866;-4.222;2022-11-20T13:02:25;5.32;;;1.80;;
44426;SDS011;30133;47.866;-4.222;2022-11-20T13:08:36;9.23;;;1.77;;
44426;SDS011;30133;47.866;-4.222;2022-11-20T13:16:38;5.43;;;1.20;;
44426;SDS011;30133;47.866;-4.222;2022-11-20T13:19:52;11.45;;;3.03;;
44426;SDS011;30133;47.866;-4.222;2022-11-20T13:22:41;3.80;;;1.20;;
44426;SDS011;30133;47.866;-4.222;2022-11-20T13:25:38;4.50;;;1.60;;
44426;SDS011;30133;47.866;-4.222;2022-11-20T13:28:26;4.93;;;1.17;;
44426;SDS011;30133;47.866;-4.222;2022-11-20T13:30:55;6.93;;;1.85;;
44426;SDS011;30133;47.866;-4.222;2022-11-20T13:36:01;8.45;;;2.30;;
44426;SDS011;30133;47.866;-4.222;2022-11-20T13:41:29;7.60;;;2.30;;
44426;SDS011;30133;47.866;-4.222;2022-11-20T13:44:10;9.32;;;2.10;;
44426;SDS011;30133;47.866;-4.222;2022-11-20T13:46:50;3.13;;;1.50;;
44426;SDS011;30133;47.866;-4.222;2022-11-20T13:49:27;4.93;;;1.35;;
44426;SDS011;30133;47.866;-4.222;2022-11-20T14:01:17;3.67;;;1.48;;
44426;SDS011;30133;47.866;-4.222;2022-11-20T14:03:53;5.40;;;1.80;;
44426;SDS011;30133;47.866;-4.222;2022-11-20T14:06:23;4.53;;;1.42;;
44426;SDS011;30133;47.866;-4.222;2022-11-20T14:08:57;7.03;;;1.50;;
44426;SDS011;30133;47.866;-4.222;2022-11-20T14:11:30;4.90;;;1.92;;
44426;SDS011;30133;47.866;-4.222;2022-11-20T14:14:00;9.43;;;2.22;;
44426;SDS011;30133;47.866;-4.222;2022-11-20T14:16:39;4.65;;;1.38;;
44426;SDS011;30133;47.866;-4.222;2022-11-20T14:19:17;4.72;;;1.33;;
44426;SDS011;30133;47.866;-4.222;2022-11-20T14:21:46;4.05;;;1.33;;
44426;SDS011;30133;47.866;-4.222;2022-11-20T14:24:21;6.70;;;1.55;;
44426;SDS011;30133;47.866;-4.222;2022-11-20T14:26:49;6.43;;;1.83;;
44426;SDS011;30133;47.866;-4.222;2022-11-20T14:29:21;6.68;;;1.55;;
44426;SDS011;30133;47.866;-4.222;2022-11-20T14:31:53;4.65;;;1.60;;
44426;SDS011;30133;47.866;-4.222;2022-11-20T14:34:23;5.53;;;1.50;;
44426;SDS011;30133;47.866;-4.222;2022-11-20T14:36:58;5.65;;;1.58;;
44426;SDS011;30133;47.866;-4.222;2022-11-20T14:39:34;3.95;;;1.35;;
44426;SDS011;30133;47.866;-4.222;2022-11-20T14:42:03;2.65;;;1.50;;
44426;SDS011;30133;47.866;-4.222;2022-11-20T14:44:42;5.35;;;1.55;;
44426;SDS011;30133;47.866;-4.222;2022-11-20T14:47:10;7.13;;;1.85;;
44426;SDS011;30133;47.866;-4.222;2022-11-20T14:49:43;5.50;;;1.63;;
44426;SDS011;30133;47.866;-4.222;2022-11-20T14:52:13;5.47;;;1.80;;
44426;SDS011;30133;47.866;-4.222;2022-11-20T14:54:51;5.78;;;2.08;;
44426;SDS011;30133;47.866;-4.222;2022-11-20T15:00:02;3.30;;;1.58;;
44426;SDS011;30133;47.866;-4.222;2022-11-20T15:02:30;3.67;;;1.30;;
44426;SDS011;30133;47.866;-4.222;2022-11-20T15:04:57;5.68;;;1.83;;
44426;SDS011;30133;47.866;-4.222;2022-11-20T15:07:27;5.43;;;1.52;;
44426;SDS011;30133;47.866;-4.222;2022-11-20T15:10:31;8.38;;;1.50;;
44426;SDS011;30133;47.866;-4.222;2022-11-20T15:12:59;9.10;;;2.10;;
44426;SDS011;30133;47.866;-4.222;2022-11-20T15:15:35;4.50;;;1.58;;
44426;SDS011;30133;47.866;-4.222;2022-11-20T15:18:12;4.35;;;1.98;;
44426;SDS011;30133;47.866;-4.222;2022-11-20T15:20:44;5.60;;;1.70;;
44426;SDS011;30133;47.866;-4.222;2022-11-20T15:23:11;4.22;;;1.70;;
44426;SDS011;30133;47.866;-4.222;2022-11-20T15:25:41;4.72;;;1.33;;
44426;SDS011;30133;47.866;-4.222;2022-11-20T15:28:17;5.05;;;1.40;;
44426;SDS011;30133;47.866;-4.222;2022-11-20T15:30:44;6.82;;;1.58;;
44426;SDS011;30133;47.866;-4.222;2022-11-20T15:33:12;5.32;;;1.80;;
44426;SDS011;30133;47.866;-4.222;2022-11-20T15:35:40;4.45;;;1.60;;
44426;SDS011;30133;47.866;-4.222;2022-11-20T15:38:06;6.07;;;2.00;;
44426;SDS011;30133;47.866;-4.222;2022-11-20T15:40:32;4.50;;;1.63;;
44426;SDS011;30133;47.866;-4.222;2022-11-20T15:42:58;5.45;;;1.77;;
44426;SDS011;30133;47.866;-4.222;2022-11-20T15:45:53;3.42;;;1.33;;
44426;SDS011;30133;47.866;-4.222;2022-11-20T15:48:24;8.68;;;2.00;;
44426;SDS011;30133;47.866;-4.222;2022-11-20T15:53:40;7.68;;;1.38;;
44426;SDS011;30133;47.866;-4.222;2022-11-20T15:56:13;7.18;;;1.80;;
44426;SDS011;30133;47.866;-4.222;2022-11-20T15:58:39;4.55;;;1.73;;
44426;SDS011;30133;47.866;-4.222;2022-11-20T16:01:13;4.72;;;1.63;;
44426;SDS011;30133;47.866;-4.222;2022-11-20T16:03:43;7.15;;;1.80;;
44426;SDS011;30133;47.866;-4.222;2022-11-20T16:06:10;9.55;;;2.20;;
44426;SDS011;30133;47.866;-4.222;2022-11-20T16:08:36;4.97;;;1.30;;
44426;SDS011;30133;47.866;-4.222;2022-11-20T16:11:02;5.35;;;2.08;;
44426;SDS011;30133;47.866;-4.222;2022-11-20T16:13:30;8.55;;;1.63;;
44426;SDS011;30133;47.866;-4.222;2022-11-20T16:16:19;10.75;;;2.20;;
44426;SDS011;30133;47.866;-4.222;2022-11-20T16:18:48;6.60;;;1.85;;
44426;SDS011;30133;47.866;-4.222;2022-11-20T16:21:15;4.82;;;1.90;;
44426;SDS011;30133;47.866;-4.222;2022-11-20T16:23:41;7.75;;;2.03;;
44426;SDS011;30133;47.866;-4.222;2022-11-20T16:26:14;4.55;;;1.25;;
44426;SDS011;30133;47.866;-4.222;2022-11-20T16:28:45;7.15;;;1.70;;
44426;SDS011;30133;47.866;-4.222;2022-11-20T16:31:12;6.25;;;1.73;;
44426;SDS011;30133;47.866;-4.222;2022-11-20T16:33:42;5.82;;;2.00;;
44426;SDS011;30133;47.866;-4.222;2022-11-20T16:36:15;6.07;;;1.80;;
44426;SDS011;30133;47.866;-4.222;2022-11-20T16:38:42;7.93;;;1.95;;
44426;SDS011;30133;47.866;-4.222;2022-11-20T16:41:09;8.63;;;1.90;;
44426;SDS011;30133;47.866;-4.222;2022-11-20T16:43:50;5.88;;;1.63;;
44426;SDS011;30133;47.866;-4.222;2022-11-20T16:46:20;6.82;;;2.20;;
44426;SDS011;30133;47.866;-4.222;2022-11-20T16:48:54;4.07;;;1.50;;
44426;SDS011;30133;47.866;-4.222;2022-11-20T16:51:29;5.30;;;1.98;;